createdAt,value
2023-01-02T00:01:54.212Z,37.45
2023-01-02T00:04:39.802Z,36.25
2023-01-02T00:07:25.560Z,37.72
2023-01-02T00:10:11.548Z,34.45
2023-01-02T00:12:57.184Z,36.42
2023-01-02T00:15:42.989Z,35.47
2023-01-02T00:18:28.427Z,36.20
2023-01-02T00:21:13.989Z,35.78
2023-01-02T00:23:59.603Z,37.33
2023-01-02T00:26:45.278Z,36.30
2023-01-02T00:29:31.073Z,33.78
2023-01-02T00:32:16.683Z,36.78
2023-01-02T00:35:02.292Z,33.50
2023-01-02T00:37:47.979Z,35.92
2023-01-02T00:40:33.954Z,35.58
2023-01-02T00:43:20.088Z,34.63
2023-01-02T00:46:11.252Z,36.10
2023-01-02T00:48:57.244Z,34.88
2023-01-02T00:51:42.892Z,34.75
2023-01-02T00:54:28.680Z,34.13
2023-01-02T00:57:14.304Z,35.90
2023-01-02T00:59:59.914Z,35.75
2023-01-02T01:02:45.482Z,37.58
2023-01-02T01:05:31.020Z,37.47
2023-01-02T01:08:16.805Z,35.58
2023-01-02T01:11:07.247Z,39.47
2023-01-02T01:13:53.025Z,39.25
2023-01-02T01:16:38.663Z,38.78
2023-01-02T01:19:24.127Z,37.97
2023-01-02T01:22:09.799Z,37.28
2023-01-02T01:24:55.514Z,36.33
2023-01-02T01:27:41.071Z,38.65
2023-01-02T01:30:28.352Z,38.42
2023-01-02T01:33:14.026Z,38.42
2023-01-02T01:36:05.198Z,36.45
2023-01-02T01:38:51.137Z,35.47
2023-01-02T01:41:37.144Z,35.42
2023-01-02T01:44:47.083Z,36.42
2023-01-02T01:47:53.385Z,36.85
2023-01-02T01:50:39.451Z,37.00
2023-01-02T01:53:25.782Z,36.72
2023-01-02T01:56:13.611Z,37.47
2023-01-02T01:58:59.274Z,35.83
2023-01-02T02:01:46.491Z,38.33
2023-01-02T02:04:32.917Z,35.83
2023-01-02T02:07:18.822Z,37.42
2023-01-02T02:10:09.047Z,37.78
2023-01-02T02:12:54.616Z,36.75
2023-01-02T02:15:52.802Z,36.15
2023-01-02T02:19:16.682Z,38.72
2023-01-02T02:25:59.930Z,37.63
2023-01-02T02:28:45.615Z,36.45
2023-01-02T02:31:52.910Z,36.80
2023-01-02T02:34:47.690Z,36.72
2023-01-02T02:37:50.543Z,36.40
2023-01-02T02:40:48.041Z,36.28
2023-01-02T02:43:42.421Z,36.28
2023-01-02T02:46:48.985Z,36.42
2023-01-02T02:50:10.450Z,35.25
2023-01-02T02:53:09.198Z,36.90
2023-01-02T02:55:57.561Z,36.50
2023-01-02T02:58:44.586Z,36.72
2023-01-02T03:01:31.360Z,35.45
2023-01-02T03:04:19.327Z,34.80
2023-01-02T03:07:21.779Z,35.20
2023-01-02T03:10:50.140Z,35.38
2023-01-02T03:14:07.643Z,34.50
2023-01-02T03:17:03.878Z,34.78
2023-01-02T03:19:55.091Z,34.38
2023-01-02T03:22:46.787Z,34.83
2023-01-02T03:25:34.596Z,34.63
2023-01-02T03:28:26.407Z,33.47
2023-01-02T03:31:17.296Z,35.13
2023-01-02T03:34:13.641Z,32.90
2023-01-02T03:37:11.650Z,33.35
2023-01-02T03:40:07.490Z,32.78
2023-01-02T03:43:20.929Z,34.10
2023-01-02T03:46:13.966Z,31.80
2023-01-02T03:49:07.640Z,32.22
2023-01-02T03:51:54.237Z,33.20
2023-01-02T03:54:40.220Z,32.72
2023-01-02T03:57:42.730Z,35.65
2023-01-02T04:00:37.211Z,35.17
2023-01-02T04:03:56.509Z,34.13
2023-01-02T04:06:49.027Z,35.05
2023-01-02T04:09:37.447Z,35.03
2023-01-02T04:12:26.798Z,35.65
2023-01-02T04:15:14.026Z,35.35
2023-01-02T04:18:10.553Z,34.75
2023-01-02T04:21:00.504Z,35.45
2023-01-02T04:23:50.684Z,33.65
2023-01-02T04:26:45.425Z,36.67
2023-01-02T04:29:31.699Z,34.28
2023-01-02T04:32:29.596Z,35.00
2023-01-02T04:35:19.156Z,36.97
2023-01-02T04:38:12.725Z,36.97
2023-01-02T04:40:58.213Z,38.10
2023-01-02T04:43:43.877Z,36.78
2023-01-02T04:46:29.783Z,37.72
2023-01-02T04:49:15.249Z,38.42
2023-01-02T04:52:01.047Z,35.72
2023-01-02T04:54:46.475Z,36.10
2023-01-02T04:57:32.140Z,35.97
2023-01-02T05:00:17.925Z,34.67
2023-01-02T05:03:04.524Z,35.00
2023-01-02T05:05:50.162Z,35.58
2023-01-02T05:08:36.773Z,32.97
2023-01-02T05:11:22.354Z,34.33
2023-01-02T05:14:08.374Z,33.00
2023-01-02T05:16:53.776Z,31.42
2023-01-02T05:19:39.539Z,31.83
2023-01-02T05:22:43.865Z,31.77
2023-01-02T05:28:20.449Z,27.98
2023-01-02T05:31:06.234Z,28.15
2023-01-02T05:33:56.514Z,27.58
2023-01-02T05:36:42.296Z,26.42
2023-01-02T05:39:28.042Z,27.38
2023-01-02T05:42:13.674Z,26.77
2023-01-02T05:44:59.747Z,28.00
2023-01-02T05:47:45.497Z,28.48
2023-01-02T05:50:31.045Z,27.80
2023-01-02T05:53:17.806Z,30.48
2023-01-02T05:56:09.612Z,29.85
2023-01-02T05:58:56.125Z,28.00
2023-01-02T06:01:42.413Z,30.40
2023-01-02T06:04:29.195Z,30.77
2023-01-02T06:07:14.939Z,29.88
2023-01-02T06:10:00.928Z,30.23
2023-01-02T06:12:46.671Z,30.45
2023-01-02T06:15:34.005Z,30.33
2023-01-02T06:18:19.455Z,28.25
2023-01-02T06:21:11.588Z,25.08
2023-01-02T06:23:58.101Z,25.10
2023-01-02T06:26:44.606Z,24.45
2023-01-02T06:29:30.732Z,21.90
2023-01-02T06:32:16.404Z,22.63
2023-01-02T06:35:01.832Z,22.40
2023-01-02T06:37:48.429Z,21.10
2023-01-02T06:40:34.131Z,21.88
2023-01-02T06:43:20.764Z,21.73
2023-01-02T06:46:06.453Z,20.05
2023-01-02T06:48:52.155Z,22.88
2023-01-02T06:51:38.668Z,17.30
2023-01-02T06:54:28.376Z,17.65
2023-01-02T06:57:14.002Z,16.63
2023-01-02T07:00:00.314Z,17.88
2023-01-02T07:02:45.868Z,17.13
2023-01-02T07:05:31.923Z,17.38
2023-01-02T07:08:17.455Z,17.73
2023-01-02T07:11:08.707Z,15.52
2023-01-02T07:13:55.132Z,15.52
2023-01-02T07:16:40.610Z,15.80
2023-01-02T07:19:26.115Z,13.35
2023-01-02T07:22:11.912Z,13.30
2023-01-02T07:24:57.563Z,13.93
2023-01-02T07:27:43.423Z,13.05
2023-01-02T07:30:28.907Z,13.10
2023-01-02T07:33:14.898Z,12.65
2023-01-02T07:36:02.517Z,12.73
2023-01-02T07:38:52.553Z,13.88
2023-01-02T07:41:38.150Z,13.38
2023-01-02T07:44:32.687Z,14.18
2023-01-02T07:47:18.637Z,17.17
2023-01-02T07:50:04.640Z,16.52
2023-01-02T07:52:49.902Z,17.20
2023-01-02T07:55:35.763Z,17.52
2023-01-02T07:58:21.452Z,17.92
2023-01-02T08:01:09.296Z,19.15
2023-01-02T08:03:55.042Z,18.10
2023-01-02T08:06:41.415Z,18.77
2023-01-02T08:09:27.148Z,22.33
2023-01-02T08:12:12.821Z,22.10
2023-01-02T08:14:58.391Z,22.65
2023-01-02T08:17:44.184Z,21.60
2023-01-02T08:20:29.522Z,38.78
2023-01-02T08:23:15.282Z,35.13
2023-01-02T08:26:02.982Z,32.80
2023-01-02T08:28:48.563Z,33.20
2023-01-02T08:31:37.646Z,28.33
2023-01-02T08:34:27.509Z,28.77
2023-01-02T08:37:14.272Z,26.13
2023-01-02T08:39:59.967Z,26.38
2023-01-02T08:42:46.467Z,24.95
2023-01-02T08:45:32.171Z,25.98
2023-01-02T08:48:20.391Z,27.05
2023-01-02T08:51:07.164Z,25.15
2023-01-02T08:53:53.117Z,26.90
2023-01-02T08:56:38.871Z,25.60
2023-01-02T08:59:25.737Z,25.92
2023-01-02T09:02:16.670Z,26.08
2023-01-02T09:05:02.613Z,24.77
2023-01-02T09:07:48.317Z,24.92
2023-01-02T09:10:34.095Z,23.35
2023-01-02T09:13:19.595Z,20.88
2023-01-02T09:16:05.758Z,20.83
2023-01-02T09:18:52.102Z,20.38
2023-01-02T09:21:37.939Z,20.63
2023-01-02T09:24:26.038Z,20.08
2023-01-02T09:27:11.717Z,19.52
2023-01-02T09:29:57.413Z,18.85
2023-01-02T09:32:43.014Z,20.35
2023-01-02T09:35:28.643Z,20.08
2023-01-02T09:38:14.674Z,21.25
2023-01-02T09:41:03.035Z,20.50
2023-01-02T09:43:52.645Z,21.20
2023-01-02T09:46:45.001Z,19.27
2023-01-02T09:49:35.049Z,20.33
2023-01-02T09:52:25.685Z,19.48
2023-01-02T09:55:17.192Z,18.77
2023-01-02T09:58:18.467Z,19.55
2023-01-02T10:01:06.266Z,20.13
2023-01-02T10:04:29.836Z,18.63
2023-01-02T10:07:26.453Z,18.83
2023-01-02T10:10:17.948Z,17.00
2023-01-02T10:13:18.613Z,20.35
2023-01-02T10:16:06.574Z,22.00
2023-01-02T10:18:54.212Z,19.77
2023-01-02T10:21:41.681Z,18.83
2023-01-02T10:24:39.289Z,18.85
2023-01-02T10:27:32.878Z,19.45
2023-01-02T10:30:19.937Z,18.52
2023-01-02T10:33:31.155Z,20.27
2023-01-02T10:36:34.741Z,18.55
2023-01-02T10:39:27.760Z,20.48
2023-01-02T10:42:15.945Z,19.48
2023-01-02T10:45:01.581Z,17.65
2023-01-02T10:47:47.212Z,16.27
2023-01-02T10:50:40.692Z,19.05
2023-01-02T10:53:39.484Z,21.27
2023-01-02T10:56:24.869Z,18.58
2023-01-02T10:59:21.866Z,20.48
2023-01-02T11:02:27.338Z,18.10
2023-01-02T11:05:21.129Z,17.35
2023-01-02T11:08:14.660Z,19.20
2023-01-02T11:11:01.788Z,18.88
2023-01-02T11:13:54.081Z,18.00
2023-01-02T11:16:42.070Z,15.90
2023-01-02T11:19:29.955Z,16.13
2023-01-02T11:22:18.500Z,12.23
2023-01-02T11:25:11.458Z,14.05
2023-01-02T11:27:59.504Z,13.80
2023-01-02T11:30:46.395Z,13.35
2023-01-02T11:33:36.465Z,11.52
2023-01-02T11:36:22.725Z,13.57
2023-01-02T11:39:23.316Z,10.50
2023-01-02T11:42:27.299Z,9.60
2023-01-02T11:45:12.839Z,10.35
2023-01-02T11:48:02.162Z,9.98
2023-01-02T11:50:50.018Z,11.77
2023-01-02T11:53:41.341Z,10.82
2023-01-02T11:56:33.496Z,10.20
2023-01-02T11:59:23.793Z,11.95
2023-01-02T12:02:26.976Z,10.77
2023-01-02T12:05:33.163Z,10.20
2023-01-02T12:08:51.003Z,9.95
2023-01-02T12:11:49.669Z,10.15
2023-01-02T12:14:44.062Z,10.40
2023-01-02T12:17:51.509Z,10.18
2023-01-02T12:21:02.404Z,10.93
2023-01-02T12:23:48.169Z,10.68
2023-01-02T12:26:49.045Z,10.27
2023-01-02T12:29:47.974Z,11.18
2023-01-02T12:32:52.481Z,10.52
2023-01-02T12:35:52.845Z,9.82
2023-01-02T12:38:50.705Z,12.13
2023-01-02T12:42:03.044Z,10.68
2023-01-02T12:44:54.964Z,11.15
2023-01-02T12:48:12.679Z,10.93
2023-01-02T12:51:11.771Z,10.57
2023-01-02T12:54:31.906Z,10.55
2023-01-02T12:57:51.444Z,10.80
2023-01-02T13:00:51.390Z,11.15
2023-01-02T13:03:52.692Z,12.27
2023-01-02T13:06:59.906Z,11.23
2023-01-02T13:09:46.015Z,12.00
2023-01-02T13:12:34.884Z,11.68
2023-01-02T13:15:28.087Z,10.15
2023-01-02T13:18:27.767Z,10.82
2023-01-02T13:21:25.604Z,11.70
2023-01-02T13:24:23.961Z,10.73
2023-01-02T13:27:11.230Z,11.77
2023-01-02T13:29:56.938Z,16.02
2023-01-02T13:32:42.450Z,14.90
2023-01-02T13:35:33.427Z,19.25
2023-01-02T13:38:19.787Z,16.42
2023-01-02T13:41:05.647Z,15.98
2023-01-02T13:44:02.505Z,19.25
2023-01-02T13:47:04.293Z,13.45
2023-01-02T13:50:02.777Z,12.80
2023-01-02T13:53:26.671Z,11.82
2023-01-02T13:56:17.084Z,11.00
2023-01-02T13:59:41.800Z,12.80
2023-01-02T14:02:29.767Z,13.13
2023-01-02T14:05:52.919Z,12.43
2023-01-02T14:08:40.442Z,12.38
2023-01-02T14:11:31.866Z,12.20
2023-01-02T14:14:46.912Z,12.05
2023-01-02T14:17:51.553Z,12.63
2023-01-02T14:20:42.822Z,13.15
2023-01-02T14:23:32.780Z,11.77
2023-01-02T14:26:24.633Z,12.52
2023-01-02T14:29:17.060Z,13.45
2023-01-02T14:32:17.807Z,14.18
2023-01-02T14:35:08.186Z,15.40
2023-01-02T14:37:56.234Z,14.77
2023-01-02T14:40:43.687Z,14.75
2023-01-02T14:43:37.504Z,13.10
2023-01-02T14:46:26.461Z,13.60
2023-01-02T14:49:25.413Z,13.80
2023-01-02T14:52:18.825Z,13.95
2023-01-02T14:55:27.233Z,14.25
2023-01-02T14:58:46.682Z,13.27
2023-01-02T15:01:42.315Z,13.18
2023-01-02T15:04:52.672Z,19.90
2023-01-02T15:07:43.475Z,14.88
2023-01-02T15:10:29.079Z,16.13
2023-01-02T15:13:14.733Z,14.88
2023-01-02T15:16:00.858Z,14.55
2023-01-02T15:18:54.168Z,14.13
2023-01-02T15:21:40.275Z,14.70
2023-01-02T15:24:27.889Z,15.82
2023-01-02T15:27:23.863Z,18.65
2023-01-02T15:30:27.711Z,18.55
2023-01-02T15:33:30.878Z,20.02
2023-01-02T15:36:32.819Z,20.63
2023-01-02T15:39:22.396Z,19.88
2023-01-02T15:42:49.959Z,19.75
2023-01-02T15:45:42.439Z,20.08
2023-01-02T15:48:29.480Z,18.92
2023-01-02T15:51:40.620Z,18.13
2023-01-02T15:54:28.899Z,18.92
2023-01-02T15:57:16.214Z,17.83
2023-01-02T16:00:02.283Z,19.27
2023-01-02T16:02:52.901Z,18.60
2023-01-02T16:05:46.525Z,18.40
2023-01-02T16:08:37.784Z,20.05
2023-01-02T16:11:24.434Z,19.13
2023-01-02T16:14:20.655Z,19.67
2023-01-02T16:17:26.785Z,20.02
2023-01-02T16:20:13.017Z,20.08
2023-01-02T16:23:05.569Z,20.00
2023-01-02T16:25:51.232Z,19.70
2023-01-02T16:28:40.571Z,19.55
2023-01-02T16:31:26.586Z,20.02
2023-01-02T16:34:14.088Z,19.58
2023-01-02T16:37:16.411Z,20.30
2023-01-02T16:41:01.148Z,20.35
2023-01-02T16:43:34.429Z,20.73
2023-01-02T16:46:24.098Z,20.30
2023-01-02T16:49:14.258Z,20.35
2023-01-02T16:52:00.908Z,20.38
2023-01-02T16:54:50.780Z,20.02
2023-01-02T16:57:39.756Z,19.92
2023-01-02T17:00:25.732Z,21.45
2023-01-02T17:03:19.405Z,21.15
2023-01-02T17:06:12.407Z,20.77
2023-01-02T17:08:58.149Z,21.23
2023-01-02T17:12:00.054Z,26.05
2023-01-02T17:14:46.329Z,23.95
2023-01-02T17:17:35.949Z,23.63
2023-01-02T17:20:21.955Z,22.02
2023-01-02T17:23:07.542Z,20.42
2023-01-02T17:25:53.072Z,21.20
2023-01-02T17:28:38.771Z,22.30
2023-01-02T17:31:26.234Z,23.98
2023-01-02T17:34:12.722Z,25.13
2023-01-02T17:36:58.678Z,23.95
2023-01-02T17:39:46.144Z,24.23
2023-01-02T17:42:32.314Z,26.10
2023-01-02T17:45:18.153Z,26.23
2023-01-02T17:48:10.614Z,28.15
2023-01-02T17:53:43.061Z,27.50
2023-01-02T17:56:28.965Z,27.63
2023-01-02T17:59:19.216Z,26.13
2023-01-02T18:02:05.649Z,23.85
2023-01-02T18:04:55.156Z,20.45
2023-01-02T18:07:42.718Z,21.05
2023-01-02T18:10:32.983Z,21.70
2023-01-02T18:13:19.153Z,22.13
2023-01-02T18:16:16.565Z,20.58
2023-01-02T18:19:04.182Z,21.38
2023-01-02T18:21:52.779Z,21.40
2023-01-02T18:24:38.662Z,22.35
2023-01-02T18:27:27.590Z,20.95
2023-01-02T18:30:18.836Z,23.05
2023-01-02T18:33:30.090Z,21.05
2023-01-02T18:36:22.835Z,21.90
2023-01-02T18:39:34.441Z,21.67
2023-01-02T18:43:16.558Z,23.02
2023-01-02T18:46:16.097Z,22.58
2023-01-02T18:49:24.087Z,21.70
2023-01-02T18:52:10.486Z,22.00
2023-01-02T18:55:00.723Z,22.35
2023-01-02T18:57:55.577Z,23.33
2023-01-02T19:00:41.744Z,24.80
2023-01-02T19:03:28.356Z,25.05
2023-01-02T19:11:21.319Z,23.40
2023-01-02T19:14:20.308Z,26.33
2023-01-02T19:17:19.863Z,23.05
2023-01-02T19:20:09.622Z,23.30
2023-01-02T19:22:59.780Z,21.27
2023-01-02T19:25:45.473Z,23.00
2023-01-02T19:28:32.244Z,22.00
2023-01-02T19:31:17.942Z,23.05
2023-01-02T19:34:16.346Z,23.45
2023-01-02T19:37:11.256Z,27.55
2023-01-02T19:40:14.641Z,29.92
2023-01-02T19:43:04.043Z,32.10
2023-01-02T19:45:49.710Z,30.40
2023-01-02T19:48:35.688Z,27.13
2023-01-02T19:51:22.863Z,26.08
2023-01-02T19:54:08.486Z,24.42
2023-01-02T19:56:54.079Z,25.85
2023-01-02T19:59:43.628Z,25.98
2023-01-02T20:02:29.597Z,25.85
2023-01-02T20:05:21.045Z,25.38
2023-01-02T20:08:07.943Z,24.85
2023-01-02T20:10:54.498Z,25.65
2023-01-02T20:13:40.181Z,26.58
2023-01-02T20:16:26.843Z,27.58
2023-01-02T20:19:13.725Z,26.98
2023-01-02T20:22:00.207Z,27.88
2023-01-02T20:24:46.630Z,29.33
2023-01-02T20:27:32.144Z,27.48
2023-01-02T20:30:23.970Z,27.58
2023-01-02T20:33:10.449Z,27.00
2023-01-02T20:35:56.285Z,27.17
2023-01-02T20:38:41.639Z,28.13
2023-01-02T20:41:27.183Z,28.15
2023-01-02T20:44:14.103Z,27.50
2023-01-02T20:47:01.719Z,26.95
2023-01-02T20:49:47.453Z,26.52
2023-01-02T20:52:33.036Z,26.13
2023-01-02T20:55:18.632Z,26.55
2023-01-02T20:58:04.689Z,26.98
2023-01-02T21:00:50.779Z,25.60
2023-01-02T21:03:36.555Z,26.23
2023-01-02T21:06:22.653Z,27.50
2023-01-02T21:09:08.130Z,26.40
2023-01-02T21:11:53.823Z,26.15
2023-01-02T21:14:39.563Z,28.25
2023-01-02T21:17:26.062Z,25.88
2023-01-02T21:20:11.984Z,26.50
2023-01-02T21:22:57.456Z,28.02
2023-01-02T21:25:43.505Z,27.05
2023-01-02T21:28:29.204Z,28.65
2023-01-02T21:31:15.468Z,27.70
2023-01-02T21:34:01.209Z,26.98
2023-01-02T21:36:46.831Z,28.85
2023-01-02T21:39:32.469Z,27.65
2023-01-02T21:42:18.983Z,26.90
2023-01-02T21:45:05.070Z,28.92
2023-01-02T21:47:50.994Z,27.75
2023-01-02T21:50:36.701Z,28.52
2023-01-02T21:53:22.489Z,28.45
2023-01-02T21:56:08.704Z,28.17
2023-01-02T21:58:54.999Z,27.55
2023-01-02T22:01:40.697Z,26.52
2023-01-02T22:04:26.147Z,27.92
2023-01-02T22:07:31.062Z,27.77
2023-01-02T22:10:17.807Z,27.55
2023-01-02T22:13:03.694Z,29.00
2023-01-02T22:15:49.241Z,29.38
2023-01-02T22:18:38.231Z,28.15
2023-01-02T22:21:24.459Z,28.33
2023-01-02T22:24:10.061Z,26.92
2023-01-02T22:27:02.412Z,26.63
2023-01-02T22:30:20.608Z,27.83
2023-01-02T22:32:56.352Z,27.08
2023-01-02T22:35:42.180Z,26.75
2023-01-02T22:38:27.952Z,26.67
2023-01-02T22:41:13.701Z,26.90
2023-01-02T22:44:02.143Z,26.33
2023-01-02T22:46:54.250Z,26.15
2023-01-02T22:49:40.837Z,27.65
2023-01-02T22:52:27.731Z,28.40
2023-01-02T22:55:21.491Z,28.17
2023-01-02T22:58:07.688Z,29.17
2023-01-02T23:01:23.658Z,28.35
2023-01-02T23:04:17.421Z,29.48
2023-01-02T23:07:23.290Z,28.95
2023-01-02T23:10:10.113Z,28.65
2023-01-02T23:12:55.916Z,28.15
2023-01-02T23:16:01.454Z,29.20
2023-01-02T23:19:05.919Z,28.30
2023-01-02T23:21:57.007Z,29.00
2023-01-02T23:24:42.678Z,29.17
2023-01-02T23:27:28.107Z,29.20
2023-01-02T23:30:14.312Z,27.60
2023-01-02T23:32:59.784Z,26.33
2023-01-02T23:35:45.374Z,26.88
2023-01-02T23:38:32.979Z,26.58
2023-01-02T23:41:19.148Z,25.73
2023-01-02T23:44:05.733Z,27.77
2023-01-02T23:46:51.700Z,26.50
2023-01-02T23:49:37.136Z,26.35
2023-01-02T23:52:22.735Z,27.48
2023-01-02T23:55:08.771Z,29.10
2023-01-02T23:57:54.214Z,28.70
